logo
Search for airport 
image banner adimage banner adimage banner ad
image banner ad

EYKA - Kaunas/International

Located in Kaunas, Lithuania

ICAO - EYKA, IATA - KUN

Data provided by Airmate  

General information

Coordinates: N54°57'50" E24°5'5"
Elevation is 259 feet MSL.
Magnetic variation is 8° East
View others Airports in Kaunas County

Operational data

Special qualification required
Current time UTC:
Current local time:
Weather
METAR: EYKA 170650Z VRB02KT 9999 BKN008 04/02 Q1001
TAF: TAF EYKA 170506Z 1706/1806 VRB05KT 9000 BKN030 TEMPO 1706/1708 BKN005 TEMPO 1708/1718 SCT025CB PROB40 TEMPO 1712/1718 5000 SHRA TEMPO 1802/1806 OVC005
View NOTAMs / SUP AIP / TFR affecting this airport [VIEW]
Communications frequencies: [VIEW]

Runways:

RWY identifierQFULength (ft)Width (ft)SurfaceLDA (ft)
0885°10663148CONC+ASPH9682
26265°10663148CONC+ASPH9682

Airport contact information

Address: Kaunas Lithuania

Satellite view of EYKA